Impros — D5BS7 — position and weather

sailwx.info

Track history (hours):
 
Tides and Currents Weather Stations Pressure Air Temp Water Temp Dewpoint Dewpoint Depression Visibility Wind Speed Wind Dir Waves Ship Positions

Impros

Last reported at 2014-Sep-15 10:32 UTC. Time now 2014-Sep-22 18:21 UTC.
Position N 01°14' E 103°59'.

Length 244 m; draft 12.6 m.

Type: Tanker. MMSI: 636015595.

Date/timePositionNaut miles runAvg speedWind from/ knotsBaromVisibWave heightAir tempDewpointWater temp
2014-Sep-15 10:32N 01°14' E 103°59'1111.6
2014-Sep-15 09:34N 01°10' E 103°48'1110.5
2014-Sep-15 08:29N 01°03' E 103°39'9 9.1
2014-Sep-15 07:28N 01°09' E 103°33'6 6.7
2014-Sep-15 06:33N 01°14' E 103°34'0 0.0
2014-Sep-15 00:31N 01°15' E 103°34'0 0.0
2014-Sep-14 23:20N 01°15' E 103°34'0 0.1
2014-Sep-14 21:31N 01°15' E 103°34'0 0.0
2014-Sep-14 20:16N 01°15' E 103°34'0 0.0
2014-Sep-14 18:31N 01°15' E 103°34'0 0.0
2014-Sep-14 10:04N 01°15' E 103°34'0 0.0
2014-Sep-14 09:16N 01°15' E 103°34'0 0.0
2014-Sep-14 08:28N 01°15' E 103°34'0 0.0
2014-Sep-14 07:07N 01°15' E 103°34'0 0.0
2014-Sep-14 06:10N 01°15' E 103°34'0 0.1
2014-Sep-14 01:22N 01°15' E 103°34'0 0.0
2014-Sep-13 20:30N 01°15' E 103°34'0 0.0
2014-Sep-13 18:33N 01°15' E 103°34'0 0.1
2014-Sep-13 14:09N 01°15' E 103°34'0 0.0
2014-Sep-13 13:33N 01°15' E 103°34'0 0.0
2014-Sep-13 12:30N 01°15' E 103°34'0 0.0
2014-Sep-13 11:33N 01°15' E 103°34'0 0.1
2014-Sep-13 09:18N 01°15' E 103°34'0 0.0
2014-Sep-13 08:33N 01°15' E 103°34'0 0.0
2014-Sep-13 07:30N 01°15' E 103°34'1 0.1
2014-Sep-12 18:32N 01°15' E 103°34'3 0.1
2014-Sep-11 13:17N 01°18' E 103°33'5 6.3
2014-Sep-11 12:30N 01°13' E 103°32'4 4.0
2014-Sep-11 11:33N 01°12' E 103°36'4 4.1
2014-Sep-11 10:33N 01°11' E 103°40'7 7.1
2014-Sep-11 09:32N 01°10' E 103°47'9 9.1
2014-Sep-11 08:33N 01°14' E 103°55'2 1.6
2014-Sep-11 07:32N 01°15' E 103°55'0 0.1
2014-Sep-11 06:32N 01°15' E 103°55'0 0.1
2014-Sep-11 05:32N 01°15' E 103°55'0 0.1
2014-Sep-11 04:32N 01°15' E 103°55'0 0.1
2014-Sep-11 03:32N 01°15' E 103°55'0 0.0
2014-Sep-11 02:32N 01°15' E 103°55'0 0.0
2014-Sep-11 01:32N 01°15' E 103°55'0 0.1
2014-Sep-11 00:32N 01°15' E 103°55'0 0.1
2014-Sep-10 23:32N 01°15' E 103°55'0 0.1
2014-Sep-10 22:31N 01°15' E 103°55'0 0.0
2014-Sep-10 21:31N 01°15' E 103°55'0 0.0
2014-Sep-10 20:31N 01°15' E 103°55'0 0.1
2014-Sep-10 19:31N 01°15' E 103°55'0 0.1
2014-Sep-10 18:31N 01°15' E 103°55'0 0.1
2014-Sep-10 17:31N 01°15' E 103°55'0 0.1
2014-Sep-10 16:28N 01°15' E 103°55'1 1.1
2014-Sep-10 15:33N 01°15' E 103°56'4 4.1
2014-Sep-10 14:33N 01°16' E 103°60'4 3.9
2014-Sep-10 13:33N 01°15' E 104°03'7 6.8
2014-Sep-10 12:33N 01°14' E 103°57'7 7.4
2014-Sep-10 11:33N 01°11' E 103°50'  
Track history (hours):
 
Tides and Currents Weather Stations Pressure Air Temp Water Temp Dewpoint Dewpoint Depression Visibility Wind Speed Wind Dir Waves Ship Positions

Impros

Last reported at 2014-Sep-15 10:32 UTC. Time now 2014-Sep-22 18:21 UTC.
Position N 01°14' E 103°59'.

Length 244 m; draft 12.6 m.

Type: Tanker. MMSI: 636015595.

Date/timePositionNaut miles runAvg speedWind from/ knotsBaromVisibWave heightAir tempDewpointWater temp
2014-Sep-15 10:32N 01°14' E 103°59'1111.6
2014-Sep-15 09:34N 01°10' E 103°48'1110.5
2014-Sep-15 08:29N 01°03' E 103°39'9 9.1
2014-Sep-15 07:28N 01°09' E 103°33'6 6.7
2014-Sep-15 06:33N 01°14' E 103°34'0 0.0
2014-Sep-15 00:31N 01°15' E 103°34'0 0.0
2014-Sep-14 23:20N 01°15' E 103°34'0 0.1
2014-Sep-14 21:31N 01°15' E 103°34'0 0.0
2014-Sep-14 20:16N 01°15' E 103°34'0 0.0
2014-Sep-14 18:31N 01°15' E 103°34'0 0.0
2014-Sep-14 10:04N 01°15' E 103°34'0 0.0
2014-Sep-14 09:16N 01°15' E 103°34'0 0.0
2014-Sep-14 08:28N 01°15' E 103°34'0 0.0
2014-Sep-14 07:07N 01°15' E 103°34'0 0.0
2014-Sep-14 06:10N 01°15' E 103°34'0 0.1
2014-Sep-14 01:22N 01°15' E 103°34'0 0.0
2014-Sep-13 20:30N 01°15' E 103°34'0 0.0
2014-Sep-13 18:33N 01°15' E 103°34'0 0.1
2014-Sep-13 14:09N 01°15' E 103°34'0 0.0
2014-Sep-13 13:33N 01°15' E 103°34'0 0.0
2014-Sep-13 12:30N 01°15' E 103°34'0 0.0
2014-Sep-13 11:33N 01°15' E 103°34'0 0.1
2014-Sep-13 09:18N 01°15' E 103°34'0 0.0
2014-Sep-13 08:33N 01°15' E 103°34'0 0.0
2014-Sep-13 07:30N 01°15' E 103°34'1 0.1
2014-Sep-12 18:32N 01°15' E 103°34'3 0.1
2014-Sep-11 13:17N 01°18' E 103°33'5 6.3
2014-Sep-11 12:30N 01°13' E 103°32'4 4.0
2014-Sep-11 11:33N 01°12' E 103°36'4 4.1
2014-Sep-11 10:33N 01°11' E 103°40'7 7.1
2014-Sep-11 09:32N 01°10' E 103°47'9 9.1
2014-Sep-11 08:33N 01°14' E 103°55'2 1.6
2014-Sep-11 07:32N 01°15' E 103°55'0 0.1
2014-Sep-11 06:32N 01°15' E 103°55'0 0.1
2014-Sep-11 05:32N 01°15' E 103°55'0 0.1
2014-Sep-11 04:32N 01°15' E 103°55'0 0.1
2014-Sep-11 03:32N 01°15' E 103°55'0 0.0
2014-Sep-11 02:32N 01°15' E 103°55'0 0.0
2014-Sep-11 01:32N 01°15' E 103°55'0 0.1
2014-Sep-11 00:32N 01°15' E 103°55'0 0.1
2014-Sep-10 23:32N 01°15' E 103°55'0 0.1
2014-Sep-10 22:31N 01°15' E 103°55'0 0.0
2014-Sep-10 21:31N 01°15' E 103°55'0 0.0
2014-Sep-10 20:31N 01°15' E 103°55'0 0.1
2014-Sep-10 19:31N 01°15' E 103°55'0 0.1
2014-Sep-10 18:31N 01°15' E 103°55'0 0.1
2014-Sep-10 17:31N 01°15' E 103°55'0 0.1
2014-Sep-10 16:28N 01°15' E 103°55'1 1.1
2014-Sep-10 15:33N 01°15' E 103°56'4 4.1
2014-Sep-10 14:33N 01°16' E 103°60'4 3.9
2014-Sep-10 13:33N 01°15' E 104°03'7 6.8
2014-Sep-10 12:33N 01°14' E 103°57'7 7.4
2014-Sep-10 11:33N 01°11' E 103°50'  

Dump ship's entire track history